Home

PKWA Terminal Aerodrome Forecast (TAF)small logo


TAF provided by NWS Guam
2014/04/19 12:30
TAF PKWA 191124Z 1912/2012 07014KT P6SM VCSH SCT020 SCT040

      



Site Map | Contact Us | Copyright © 2007 Atmospheric Technology Services Company. All rights reserved.